Terminal Aerodrome Forecast
Issued by NWS

Home | Current Version | Previous Version | Text Only | Print | Product List | Glossary On
Versions: 1 2 3 4 5 6 7 8 9 10 11 12 13 14 15 16 17 18 19 20 21 22 23 24 25 26 27 28 29 30 31
000
FTUS44 KMAF 221700 RRA
TAFPEQ
TAF
KPEQ 221746Z 2218/2318 13005KT P6SM SCT030 BKN250
     FM230200 VRB04KT P6SM SCT120 SCT250
     FM231100 VRB04KT 5SM BR SKC
      TEMPO 2311/2314 2SM BR
     FM231400 VRB04KT P6SM FEW050=

USA.gov is the U.S. government's official web portal to all federal, state and local government web resources and services.